<?xml version="1.0" encoding="UTF-8" standalone="no" ?>
<gpx xmlns="http://www.topografix.com/GPX/1/1" xmlns:xsi="http://www.w3.org/2001/XMLSchema-instance" xsi:schemaLocation="http://www.topografix.com/GPX/1/1 http://www.topografix.com/GPX/1/1/gpx.xsd" version="1.1" creator="VisuGPX - https://www.visugpx.com">
  <metadata>
    <name>BRUNOY</name>
    <desc><![CDATA[Brunoy avec J-C GRENE]]></desc>
  </metadata>
  <trk>
    <name><![CDATA[OR-6450616--Brunoy: Brunoy]]></name>
    <trkseg>
      <trkpt lat="48.69677" lon="2.499">
        <ele>42</ele>
        <time>2016-08-09T16:15:21Z</time>
      </trkpt>
      <trkpt lat="48.69655" lon="2.49874">
        <ele>43</ele>
        <time>2016-08-09T16:17:21Z</time>
      </trkpt>
      <trkpt lat="48.69649" lon="2.49855">
        <ele>43</ele>
        <time>2016-08-09T16:19:21Z</time>
      </trkpt>
      <trkpt lat="48.69644" lon="2.49855">
        <ele>44</ele>
        <time>2016-08-09T16:21:21Z</time>
      </trkpt>
      <trkpt lat="48.69591" lon="2.49969">
        <ele>46</ele>
        <time>2016-08-09T16:23:21Z</time>
      </trkpt>
      <trkpt lat="48.69556" lon="2.50048">
        <ele>46</ele>
        <time>2016-08-09T16:25:21Z</time>
      </trkpt>
      <trkpt lat="48.69531" lon="2.50109">
        <ele>45</ele>
        <time>2016-08-09T16:27:21Z</time>
      </trkpt>
      <trkpt lat="48.69519" lon="2.50152">
        <ele>44</ele>
        <time>2016-08-09T16:29:21Z</time>
      </trkpt>
      <trkpt lat="48.69519" lon="2.50163">
        <ele>44</ele>
        <time>2016-08-09T16:31:21Z</time>
      </trkpt>
      <trkpt lat="48.69514" lon="2.50176">
        <ele>44</ele>
        <time>2016-08-09T16:33:21Z</time>
      </trkpt>
      <trkpt lat="48.69505" lon="2.50193">
        <ele>44</ele>
        <time>2016-08-09T16:35:21Z</time>
      </trkpt>
      <trkpt lat="48.69515" lon="2.50239">
        <ele>44</ele>
        <time>2016-08-09T16:37:21Z</time>
      </trkpt>
      <trkpt lat="48.69536" lon="2.50265">
        <ele>43</ele>
        <time>2016-08-09T16:39:21Z</time>
      </trkpt>
      <trkpt lat="48.69565" lon="2.50284">
        <ele>42</ele>
        <time>2016-08-09T16:41:21Z</time>
      </trkpt>
      <trkpt lat="48.69597" lon="2.50302">
        <ele>42</ele>
        <time>2016-08-09T16:43:21Z</time>
      </trkpt>
      <trkpt lat="48.69625" lon="2.50318">
        <ele>42</ele>
        <time>2016-08-09T16:45:21Z</time>
      </trkpt>
      <trkpt lat="48.69615" lon="2.50366">
        <ele>43</ele>
        <time>2016-08-09T16:47:21Z</time>
      </trkpt>
      <trkpt lat="48.6961" lon="2.50394">
        <ele>44</ele>
        <time>2016-08-09T16:49:21Z</time>
      </trkpt>
      <trkpt lat="48.69605" lon="2.50415">
        <ele>44</ele>
        <time>2016-08-09T16:51:21Z</time>
      </trkpt>
      <trkpt lat="48.69601" lon="2.50439">
        <ele>45</ele>
        <time>2016-08-09T16:53:21Z</time>
      </trkpt>
      <trkpt lat="48.69597" lon="2.5047">
        <ele>45</ele>
        <time>2016-08-09T16:55:21Z</time>
      </trkpt>
      <trkpt lat="48.69596" lon="2.50501">
        <ele>45</ele>
        <time>2016-08-09T16:57:21Z</time>
      </trkpt>
      <trkpt lat="48.69599" lon="2.50572">
        <ele>44</ele>
        <time>2016-08-09T16:59:21Z</time>
      </trkpt>
      <trkpt lat="48.69605" lon="2.50626">
        <ele>43</ele>
        <time>2016-08-09T17:01:21Z</time>
      </trkpt>
      <trkpt lat="48.69606" lon="2.50665">
        <ele>42</ele>
        <time>2016-08-09T17:03:21Z</time>
      </trkpt>
      <trkpt lat="48.69608" lon="2.50697">
        <ele>43</ele>
        <time>2016-08-09T17:05:21Z</time>
      </trkpt>
      <trkpt lat="48.6961" lon="2.50743">
        <ele>43</ele>
        <time>2016-08-09T17:07:21Z</time>
      </trkpt>
      <trkpt lat="48.69613" lon="2.50831">
        <ele>46</ele>
        <time>2016-08-09T17:09:21Z</time>
      </trkpt>
      <trkpt lat="48.69615" lon="2.50886">
        <ele>46</ele>
        <time>2016-08-09T17:11:21Z</time>
      </trkpt>
      <trkpt lat="48.69618" lon="2.50919">
        <ele>46</ele>
        <time>2016-08-09T17:13:21Z</time>
      </trkpt>
      <trkpt lat="48.69622" lon="2.50938">
        <ele>46</ele>
        <time>2016-08-09T17:15:21Z</time>
      </trkpt>
      <trkpt lat="48.69491" lon="2.51058">
        <ele>49</ele>
        <time>2016-08-09T17:17:21Z</time>
      </trkpt>
      <trkpt lat="48.69506" lon="2.51088">
        <ele>49</ele>
        <time>2016-08-09T17:19:21Z</time>
      </trkpt>
      <trkpt lat="48.69521" lon="2.51127">
        <ele>46</ele>
        <time>2016-08-09T17:21:21Z</time>
      </trkpt>
      <trkpt lat="48.69529" lon="2.51127">
        <ele>46</ele>
        <time>2016-08-09T17:23:21Z</time>
      </trkpt>
      <trkpt lat="48.6956" lon="2.51153">
        <ele>45</ele>
        <time>2016-08-09T17:25:21Z</time>
      </trkpt>
      <trkpt lat="48.69585" lon="2.51139">
        <ele>46</ele>
        <time>2016-08-09T17:27:21Z</time>
      </trkpt>
      <trkpt lat="48.69594" lon="2.51137">
        <ele>45</ele>
        <time>2016-08-09T17:29:21Z</time>
      </trkpt>
      <trkpt lat="48.6961" lon="2.51148">
        <ele>44</ele>
        <time>2016-08-09T17:31:21Z</time>
      </trkpt>
      <trkpt lat="48.69623" lon="2.51148">
        <ele>43</ele>
        <time>2016-08-09T17:33:21Z</time>
      </trkpt>
      <trkpt lat="48.69651" lon="2.51177">
        <ele>41</ele>
        <time>2016-08-09T17:35:21Z</time>
      </trkpt>
      <trkpt lat="48.6967" lon="2.51194">
        <ele>41</ele>
        <time>2016-08-09T17:37:21Z</time>
      </trkpt>
      <trkpt lat="48.6969" lon="2.5124">
        <ele>43</ele>
        <time>2016-08-09T17:39:21Z</time>
      </trkpt>
      <trkpt lat="48.69723" lon="2.51347">
        <ele>43</ele>
        <time>2016-08-09T17:41:21Z</time>
      </trkpt>
      <trkpt lat="48.69728" lon="2.51377">
        <ele>43</ele>
        <time>2016-08-09T17:43:21Z</time>
      </trkpt>
      <trkpt lat="48.69732" lon="2.51416">
        <ele>43</ele>
        <time>2016-08-09T17:45:21Z</time>
      </trkpt>
      <trkpt lat="48.69735" lon="2.51465">
        <ele>43</ele>
        <time>2016-08-09T17:47:21Z</time>
      </trkpt>
      <trkpt lat="48.69739" lon="2.51522">
        <ele>43</ele>
        <time>2016-08-09T17:49:21Z</time>
      </trkpt>
      <trkpt lat="48.6974" lon="2.5155">
        <ele>42</ele>
        <time>2016-08-09T17:51:21Z</time>
      </trkpt>
      <trkpt lat="48.69745" lon="2.51579">
        <ele>41</ele>
        <time>2016-08-09T17:53:21Z</time>
      </trkpt>
      <trkpt lat="48.69752" lon="2.51613">
        <ele>41</ele>
        <time>2016-08-09T17:55:21Z</time>
      </trkpt>
      <trkpt lat="48.69755" lon="2.51643">
        <ele>41</ele>
        <time>2016-08-09T17:57:21Z</time>
      </trkpt>
      <trkpt lat="48.69759" lon="2.51664">
        <ele>41</ele>
        <time>2016-08-09T17:59:21Z</time>
      </trkpt>
      <trkpt lat="48.69762" lon="2.51685">
        <ele>42</ele>
        <time>2016-08-09T18:01:21Z</time>
      </trkpt>
      <trkpt lat="48.69763" lon="2.51699">
        <ele>42</ele>
        <time>2016-08-09T18:03:21Z</time>
      </trkpt>
      <trkpt lat="48.69752" lon="2.51712">
        <ele>42</ele>
        <time>2016-08-09T18:05:21Z</time>
      </trkpt>
      <trkpt lat="48.69742" lon="2.5172">
        <ele>43</ele>
        <time>2016-08-09T18:07:21Z</time>
      </trkpt>
      <trkpt lat="48.69747" lon="2.51729">
        <ele>43</ele>
        <time>2016-08-09T18:09:21Z</time>
      </trkpt>
      <trkpt lat="48.69759" lon="2.51746">
        <ele>43</ele>
        <time>2016-08-09T18:11:21Z</time>
      </trkpt>
      <trkpt lat="48.69777" lon="2.51768">
        <ele>44</ele>
        <time>2016-08-09T18:13:21Z</time>
      </trkpt>
      <trkpt lat="48.69795" lon="2.51788">
        <ele>44</ele>
        <time>2016-08-09T18:15:21Z</time>
      </trkpt>
      <trkpt lat="48.69828" lon="2.51815">
        <ele>44</ele>
        <time>2016-08-09T18:17:21Z</time>
      </trkpt>
      <trkpt lat="48.6985" lon="2.51837">
        <ele>44</ele>
        <time>2016-08-09T18:19:21Z</time>
      </trkpt>
      <trkpt lat="48.69872" lon="2.51862">
        <ele>44</ele>
        <time>2016-08-09T18:21:21Z</time>
      </trkpt>
      <trkpt lat="48.6989" lon="2.51888">
        <ele>45</ele>
        <time>2016-08-09T18:23:21Z</time>
      </trkpt>
      <trkpt lat="48.69917" lon="2.51925">
        <ele>45</ele>
        <time>2016-08-09T18:25:21Z</time>
      </trkpt>
      <trkpt lat="48.69931" lon="2.51949">
        <ele>46</ele>
        <time>2016-08-09T18:27:21Z</time>
      </trkpt>
      <trkpt lat="48.69941" lon="2.51965">
        <ele>46</ele>
        <time>2016-08-09T18:29:21Z</time>
      </trkpt>
      <trkpt lat="48.69956" lon="2.51988">
        <ele>46</ele>
        <time>2016-08-09T18:31:21Z</time>
      </trkpt>
      <trkpt lat="48.69969" lon="2.52001">
        <ele>46</ele>
        <time>2016-08-09T18:33:21Z</time>
      </trkpt>
      <trkpt lat="48.6999" lon="2.52024">
        <ele>45</ele>
        <time>2016-08-09T18:35:21Z</time>
      </trkpt>
      <trkpt lat="48.70012" lon="2.52058">
        <ele>45</ele>
        <time>2016-08-09T18:37:21Z</time>
      </trkpt>
      <trkpt lat="48.70033" lon="2.52086">
        <ele>45</ele>
        <time>2016-08-09T18:39:21Z</time>
      </trkpt>
      <trkpt lat="48.70042" lon="2.52091">
        <ele>45</ele>
        <time>2016-08-09T18:41:21Z</time>
      </trkpt>
      <trkpt lat="48.70049" lon="2.52097">
        <ele>45</ele>
        <time>2016-08-09T18:43:21Z</time>
      </trkpt>
      <trkpt lat="48.70055" lon="2.52111">
        <ele>45</ele>
        <time>2016-08-09T18:45:21Z</time>
      </trkpt>
      <trkpt lat="48.70064" lon="2.52122">
        <ele>45</ele>
        <time>2016-08-09T18:47:21Z</time>
      </trkpt>
      <trkpt lat="48.70082" lon="2.52148">
        <ele>45</ele>
        <time>2016-08-09T18:49:21Z</time>
      </trkpt>
      <trkpt lat="48.70094" lon="2.52168">
        <ele>45</ele>
        <time>2016-08-09T18:51:21Z</time>
      </trkpt>
      <trkpt lat="48.70106" lon="2.52177">
        <ele>44</ele>
        <time>2016-08-09T18:53:21Z</time>
      </trkpt>
      <trkpt lat="48.70117" lon="2.52181">
        <ele>44</ele>
        <time>2016-08-09T18:55:21Z</time>
      </trkpt>
      <trkpt lat="48.70134" lon="2.52172">
        <ele>43</ele>
        <time>2016-08-09T18:57:21Z</time>
      </trkpt>
      <trkpt lat="48.70141" lon="2.52163">
        <ele>43</ele>
        <time>2016-08-09T18:59:21Z</time>
      </trkpt>
      <trkpt lat="48.70148" lon="2.52159">
        <ele>43</ele>
        <time>2016-08-09T19:01:21Z</time>
      </trkpt>
      <trkpt lat="48.70156" lon="2.52159">
        <ele>43</ele>
        <time>2016-08-09T19:03:21Z</time>
      </trkpt>
      <trkpt lat="48.70172" lon="2.52167">
        <ele>42</ele>
        <time>2016-08-09T19:05:21Z</time>
      </trkpt>
      <trkpt lat="48.7019" lon="2.52171">
        <ele>42</ele>
        <time>2016-08-09T19:07:21Z</time>
      </trkpt>
      <trkpt lat="48.70209" lon="2.52177">
        <ele>42</ele>
        <time>2016-08-09T19:09:21Z</time>
      </trkpt>
      <trkpt lat="48.70226" lon="2.52176">
        <ele>42</ele>
        <time>2016-08-09T19:11:21Z</time>
      </trkpt>
      <trkpt lat="48.70243" lon="2.52182">
        <ele>42</ele>
        <time>2016-08-09T19:13:21Z</time>
      </trkpt>
      <trkpt lat="48.7028" lon="2.52191">
        <ele>42</ele>
        <time>2016-08-09T19:15:21Z</time>
      </trkpt>
      <trkpt lat="48.70293" lon="2.52192">
        <ele>43</ele>
        <time>2016-08-09T19:17:21Z</time>
      </trkpt>
      <trkpt lat="48.70306" lon="2.5219">
        <ele>43</ele>
        <time>2016-08-09T19:19:21Z</time>
      </trkpt>
      <trkpt lat="48.7032" lon="2.52192">
        <ele>43</ele>
        <time>2016-08-09T19:21:21Z</time>
      </trkpt>
      <trkpt lat="48.7033" lon="2.52192">
        <ele>44</ele>
        <time>2016-08-09T19:23:21Z</time>
      </trkpt>
      <trkpt lat="48.70341" lon="2.52198">
        <ele>44</ele>
        <time>2016-08-09T19:25:21Z</time>
      </trkpt>
      <trkpt lat="48.70353" lon="2.52203">
        <ele>44</ele>
        <time>2016-08-09T19:27:21Z</time>
      </trkpt>
      <trkpt lat="48.70367" lon="2.52214">
        <ele>44</ele>
        <time>2016-08-09T19:29:21Z</time>
      </trkpt>
      <trkpt lat="48.70382" lon="2.52222">
        <ele>44</ele>
        <time>2016-08-09T19:31:21Z</time>
      </trkpt>
      <trkpt lat="48.70394" lon="2.52228">
        <ele>44</ele>
        <time>2016-08-09T19:33:21Z</time>
      </trkpt>
      <trkpt lat="48.70409" lon="2.52234">
        <ele>44</ele>
        <time>2016-08-09T19:35:21Z</time>
      </trkpt>
      <trkpt lat="48.70419" lon="2.52235">
        <ele>44</ele>
        <time>2016-08-09T19:37:21Z</time>
      </trkpt>
      <trkpt lat="48.70436" lon="2.52248">
        <ele>44</ele>
        <time>2016-08-09T19:39:21Z</time>
      </trkpt>
      <trkpt lat="48.70453" lon="2.5226">
        <ele>45</ele>
        <time>2016-08-09T19:41:21Z</time>
      </trkpt>
      <trkpt lat="48.70464" lon="2.52278">
        <ele>45</ele>
        <time>2016-08-09T19:43:21Z</time>
      </trkpt>
      <trkpt lat="48.7047" lon="2.52292">
        <ele>45</ele>
        <time>2016-08-09T19:45:21Z</time>
      </trkpt>
      <trkpt lat="48.70475" lon="2.52309">
        <ele>45</ele>
        <time>2016-08-09T19:47:21Z</time>
      </trkpt>
      <trkpt lat="48.70476" lon="2.52325">
        <ele>45</ele>
        <time>2016-08-09T19:49:21Z</time>
      </trkpt>
      <trkpt lat="48.70479" lon="2.52341">
        <ele>44</ele>
        <time>2016-08-09T19:51:21Z</time>
      </trkpt>
      <trkpt lat="48.70486" lon="2.5236">
        <ele>44</ele>
        <time>2016-08-09T19:53:21Z</time>
      </trkpt>
      <trkpt lat="48.70493" lon="2.52381">
        <ele>44</ele>
        <time>2016-08-09T19:55:21Z</time>
      </trkpt>
      <trkpt lat="48.70499" lon="2.52394">
        <ele>44</ele>
        <time>2016-08-09T19:57:21Z</time>
      </trkpt>
      <trkpt lat="48.70502" lon="2.52407">
        <ele>44</ele>
        <time>2016-08-09T19:59:21Z</time>
      </trkpt>
      <trkpt lat="48.70502" lon="2.52424">
        <ele>44</ele>
        <time>2016-08-09T20:01:21Z</time>
      </trkpt>
      <trkpt lat="48.70506" lon="2.52441">
        <ele>45</ele>
        <time>2016-08-09T20:03:21Z</time>
      </trkpt>
      <trkpt lat="48.70507" lon="2.52457">
        <ele>45</ele>
        <time>2016-08-09T20:05:21Z</time>
      </trkpt>
      <trkpt lat="48.70505" lon="2.52482">
        <ele>45</ele>
        <time>2016-08-09T20:07:21Z</time>
      </trkpt>
      <trkpt lat="48.70501" lon="2.52516">
        <ele>44</ele>
        <time>2016-08-09T20:09:21Z</time>
      </trkpt>
      <trkpt lat="48.70495" lon="2.52536">
        <ele>44</ele>
        <time>2016-08-09T20:11:21Z</time>
      </trkpt>
      <trkpt lat="48.7049" lon="2.5255">
        <ele>44</ele>
        <time>2016-08-09T20:13:21Z</time>
      </trkpt>
      <trkpt lat="48.70482" lon="2.52563">
        <ele>44</ele>
        <time>2016-08-09T20:15:21Z</time>
      </trkpt>
      <trkpt lat="48.70473" lon="2.52574">
        <ele>44</ele>
        <time>2016-08-09T20:17:21Z</time>
      </trkpt>
      <trkpt lat="48.70465" lon="2.52601">
        <ele>44</ele>
        <time>2016-08-09T20:19:21Z</time>
      </trkpt>
      <trkpt lat="48.7046" lon="2.52618">
        <ele>44</ele>
        <time>2016-08-09T20:21:21Z</time>
      </trkpt>
      <trkpt lat="48.70457" lon="2.52641">
        <ele>45</ele>
        <time>2016-08-09T20:23:21Z</time>
      </trkpt>
      <trkpt lat="48.70455" lon="2.52664">
        <ele>45</ele>
        <time>2016-08-09T20:25:21Z</time>
      </trkpt>
      <trkpt lat="48.70452" lon="2.52681">
        <ele>46</ele>
        <time>2016-08-09T20:27:21Z</time>
      </trkpt>
      <trkpt lat="48.70441" lon="2.52708">
        <ele>46</ele>
        <time>2016-08-09T20:29:21Z</time>
      </trkpt>
      <trkpt lat="48.70429" lon="2.52737">
        <ele>45</ele>
        <time>2016-08-09T20:31:21Z</time>
      </trkpt>
      <trkpt lat="48.70419" lon="2.52757">
        <ele>45</ele>
        <time>2016-08-09T20:33:21Z</time>
      </trkpt>
      <trkpt lat="48.70411" lon="2.52773">
        <ele>45</ele>
        <time>2016-08-09T20:35:21Z</time>
      </trkpt>
      <trkpt lat="48.70402" lon="2.52788">
        <ele>45</ele>
        <time>2016-08-09T20:37:21Z</time>
      </trkpt>
      <trkpt lat="48.70397" lon="2.52801">
        <ele>45</ele>
        <time>2016-08-09T20:39:21Z</time>
      </trkpt>
      <trkpt lat="48.70392" lon="2.52812">
        <ele>45</ele>
        <time>2016-08-09T20:41:21Z</time>
      </trkpt>
      <trkpt lat="48.70377" lon="2.52826">
        <ele>44</ele>
        <time>2016-08-09T20:43:21Z</time>
      </trkpt>
      <trkpt lat="48.70353" lon="2.52844">
        <ele>44</ele>
        <time>2016-08-09T20:45:21Z</time>
      </trkpt>
      <trkpt lat="48.70333" lon="2.52859">
        <ele>43</ele>
        <time>2016-08-09T20:47:21Z</time>
      </trkpt>
      <trkpt lat="48.70309" lon="2.52873">
        <ele>44</ele>
        <time>2016-08-09T20:49:21Z</time>
      </trkpt>
      <trkpt lat="48.70286" lon="2.52885">
        <ele>44</ele>
        <time>2016-08-09T20:51:21Z</time>
      </trkpt>
      <trkpt lat="48.70264" lon="2.52897">
        <ele>44</ele>
        <time>2016-08-09T20:53:21Z</time>
      </trkpt>
      <trkpt lat="48.70237" lon="2.5291">
        <ele>43</ele>
        <time>2016-08-09T20:55:21Z</time>
      </trkpt>
      <trkpt lat="48.70215" lon="2.5292">
        <ele>43</ele>
        <time>2016-08-09T20:57:21Z</time>
      </trkpt>
      <trkpt lat="48.70197" lon="2.5293">
        <ele>43</ele>
        <time>2016-08-09T20:59:21Z</time>
      </trkpt>
      <trkpt lat="48.7018" lon="2.52941">
        <ele>42</ele>
        <time>2016-08-09T21:01:21Z</time>
      </trkpt>
      <trkpt lat="48.70159" lon="2.52963">
        <ele>43</ele>
        <time>2016-08-09T21:03:21Z</time>
      </trkpt>
      <trkpt lat="48.70148" lon="2.5297">
        <ele>43</ele>
        <time>2016-08-09T21:05:21Z</time>
      </trkpt>
      <trkpt lat="48.70138" lon="2.52978">
        <ele>43</ele>
        <time>2016-08-09T21:07:21Z</time>
      </trkpt>
      <trkpt lat="48.70125" lon="2.52994">
        <ele>43</ele>
        <time>2016-08-09T21:09:21Z</time>
      </trkpt>
      <trkpt lat="48.70113" lon="2.53007">
        <ele>44</ele>
        <time>2016-08-09T21:11:21Z</time>
      </trkpt>
      <trkpt lat="48.70101" lon="2.53016">
        <ele>45</ele>
        <time>2016-08-09T21:13:21Z</time>
      </trkpt>
      <trkpt lat="48.70092" lon="2.53019">
        <ele>45</ele>
        <time>2016-08-09T21:15:21Z</time>
      </trkpt>
      <trkpt lat="48.70077" lon="2.53022">
        <ele>45</ele>
        <time>2016-08-09T21:17:21Z</time>
      </trkpt>
      <trkpt lat="48.70068" lon="2.53029">
        <ele>45</ele>
        <time>2016-08-09T21:19:21Z</time>
      </trkpt>
      <trkpt lat="48.70059" lon="2.53038">
        <ele>45</ele>
        <time>2016-08-09T21:21:21Z</time>
      </trkpt>
      <trkpt lat="48.70053" lon="2.53047">
        <ele>46</ele>
        <time>2016-08-09T21:23:21Z</time>
      </trkpt>
      <trkpt lat="48.70044" lon="2.53052">
        <ele>45</ele>
        <time>2016-08-09T21:25:21Z</time>
      </trkpt>
      <trkpt lat="48.70028" lon="2.5306">
        <ele>45</ele>
        <time>2016-08-09T21:27:21Z</time>
      </trkpt>
      <trkpt lat="48.7001" lon="2.53069">
        <ele>44</ele>
        <time>2016-08-09T21:29:21Z</time>
      </trkpt>
      <trkpt lat="48.69982" lon="2.53093">
        <ele>44</ele>
        <time>2016-08-09T21:31:21Z</time>
      </trkpt>
      <trkpt lat="48.69965" lon="2.5311">
        <ele>45</ele>
        <time>2016-08-09T21:33:21Z</time>
      </trkpt>
      <trkpt lat="48.69954" lon="2.53119">
        <ele>45</ele>
        <time>2016-08-09T21:35:21Z</time>
      </trkpt>
      <trkpt lat="48.69947" lon="2.53123">
        <ele>45</ele>
        <time>2016-08-09T21:37:21Z</time>
      </trkpt>
      <trkpt lat="48.69943" lon="2.5311">
        <ele>44</ele>
        <time>2016-08-09T21:39:21Z</time>
      </trkpt>
      <trkpt lat="48.69937" lon="2.53108">
        <ele>44</ele>
        <time>2016-08-09T21:41:21Z</time>
      </trkpt>
      <trkpt lat="48.69933" lon="2.53116">
        <ele>44</ele>
        <time>2016-08-09T21:43:21Z</time>
      </trkpt>
      <trkpt lat="48.69921" lon="2.53132">
        <ele>44</ele>
        <time>2016-08-09T21:45:21Z</time>
      </trkpt>
      <trkpt lat="48.69909" lon="2.53142">
        <ele>44</ele>
        <time>2016-08-09T21:47:21Z</time>
      </trkpt>
      <trkpt lat="48.69898" lon="2.53148">
        <ele>44</ele>
        <time>2016-08-09T21:49:21Z</time>
      </trkpt>
      <trkpt lat="48.69874" lon="2.53165">
        <ele>45</ele>
        <time>2016-08-09T21:51:21Z</time>
      </trkpt>
      <trkpt lat="48.69852" lon="2.53179">
        <ele>46</ele>
        <time>2016-08-09T21:53:21Z</time>
      </trkpt>
      <trkpt lat="48.69837" lon="2.53184">
        <ele>46</ele>
        <time>2016-08-09T21:55:21Z</time>
      </trkpt>
      <trkpt lat="48.69821" lon="2.53185">
        <ele>46</ele>
        <time>2016-08-09T21:57:21Z</time>
      </trkpt>
      <trkpt lat="48.6981" lon="2.53183">
        <ele>46</ele>
        <time>2016-08-09T21:59:21Z</time>
      </trkpt>
      <trkpt lat="48.69794" lon="2.53168">
        <ele>45</ele>
        <time>2016-08-09T22:01:21Z</time>
      </trkpt>
      <trkpt lat="48.69772" lon="2.53147">
        <ele>44</ele>
        <time>2016-08-09T22:03:21Z</time>
      </trkpt>
      <trkpt lat="48.69754" lon="2.53136">
        <ele>43</ele>
        <time>2016-08-09T22:05:21Z</time>
      </trkpt>
      <trkpt lat="48.6973" lon="2.5313">
        <ele>43</ele>
        <time>2016-08-09T22:07:21Z</time>
      </trkpt>
      <trkpt lat="48.69711" lon="2.53124">
        <ele>43</ele>
        <time>2016-08-09T22:09:21Z</time>
      </trkpt>
      <trkpt lat="48.69688" lon="2.53114">
        <ele>44</ele>
        <time>2016-08-09T22:11:21Z</time>
      </trkpt>
      <trkpt lat="48.69669" lon="2.531">
        <ele>44</ele>
        <time>2016-08-09T22:13:21Z</time>
      </trkpt>
      <trkpt lat="48.69657" lon="2.53092">
        <ele>44</ele>
        <time>2016-08-09T22:15:21Z</time>
      </trkpt>
      <trkpt lat="48.69649" lon="2.53089">
        <ele>44</ele>
        <time>2016-08-09T22:17:21Z</time>
      </trkpt>
      <trkpt lat="48.69644" lon="2.53105">
        <ele>44</ele>
        <time>2016-08-09T22:19:21Z</time>
      </trkpt>
      <trkpt lat="48.69641" lon="2.53119">
        <ele>45</ele>
        <time>2016-08-09T22:21:21Z</time>
      </trkpt>
      <trkpt lat="48.69638" lon="2.53128">
        <ele>45</ele>
        <time>2016-08-09T22:23:21Z</time>
      </trkpt>
      <trkpt lat="48.69631" lon="2.53122">
        <ele>45</ele>
        <time>2016-08-09T22:25:21Z</time>
      </trkpt>
      <trkpt lat="48.69617" lon="2.53106">
        <ele>45</ele>
        <time>2016-08-09T22:27:21Z</time>
      </trkpt>
      <trkpt lat="48.69608" lon="2.53095">
        <ele>44</ele>
        <time>2016-08-09T22:29:21Z</time>
      </trkpt>
      <trkpt lat="48.69603" lon="2.53086">
        <ele>44</ele>
        <time>2016-08-09T22:31:21Z</time>
      </trkpt>
      <trkpt lat="48.69591" lon="2.53075">
        <ele>44</ele>
        <time>2016-08-09T22:33:21Z</time>
      </trkpt>
      <trkpt lat="48.69572" lon="2.5306">
        <ele>44</ele>
        <time>2016-08-09T22:35:21Z</time>
      </trkpt>
      <trkpt lat="48.69551" lon="2.5304">
        <ele>44</ele>
        <time>2016-08-09T22:37:21Z</time>
      </trkpt>
      <trkpt lat="48.6953" lon="2.53023">
        <ele>45</ele>
        <time>2016-08-09T22:39:21Z</time>
      </trkpt>
      <trkpt lat="48.69519" lon="2.53014">
        <ele>45</ele>
        <time>2016-08-09T22:41:21Z</time>
      </trkpt>
      <trkpt lat="48.69496" lon="2.53001">
        <ele>45</ele>
        <time>2016-08-09T22:43:21Z</time>
      </trkpt>
      <trkpt lat="48.69484" lon="2.52994">
        <ele>46</ele>
        <time>2016-08-09T22:45:21Z</time>
      </trkpt>
      <trkpt lat="48.69473" lon="2.52989">
        <ele>47</ele>
        <time>2016-08-09T22:47:21Z</time>
      </trkpt>
      <trkpt lat="48.69467" lon="2.52983">
        <ele>47</ele>
        <time>2016-08-09T22:49:21Z</time>
      </trkpt>
      <trkpt lat="48.69457" lon="2.52952">
        <ele>46</ele>
        <time>2016-08-09T22:51:21Z</time>
      </trkpt>
      <trkpt lat="48.69448" lon="2.52921">
        <ele>45</ele>
        <time>2016-08-09T22:53:21Z</time>
      </trkpt>
      <trkpt lat="48.69431" lon="2.52879">
        <ele>45</ele>
        <time>2016-08-09T22:55:21Z</time>
      </trkpt>
      <trkpt lat="48.69417" lon="2.52855">
        <ele>45</ele>
        <time>2016-08-09T22:57:21Z</time>
      </trkpt>
      <trkpt lat="48.69404" lon="2.52841">
        <ele>45</ele>
        <time>2016-08-09T22:59:21Z</time>
      </trkpt>
      <trkpt lat="48.69391" lon="2.52823">
        <ele>45</ele>
        <time>2016-08-09T23:01:21Z</time>
      </trkpt>
      <trkpt lat="48.69375" lon="2.52801">
        <ele>45</ele>
        <time>2016-08-09T23:03:21Z</time>
      </trkpt>
      <trkpt lat="48.69365" lon="2.52779">
        <ele>44</ele>
        <time>2016-08-09T23:05:21Z</time>
      </trkpt>
      <trkpt lat="48.69361" lon="2.52752">
        <ele>44</ele>
        <time>2016-08-09T23:07:21Z</time>
      </trkpt>
      <trkpt lat="48.69361" lon="2.52679">
        <ele>45</ele>
        <time>2016-08-09T23:09:21Z</time>
      </trkpt>
      <trkpt lat="48.69361" lon="2.52656">
        <ele>45</ele>
        <time>2016-08-09T23:11:21Z</time>
      </trkpt>
      <trkpt lat="48.6936" lon="2.52635">
        <ele>45</ele>
        <time>2016-08-09T23:13:21Z</time>
      </trkpt>
      <trkpt lat="48.69357" lon="2.52617">
        <ele>45</ele>
        <time>2016-08-09T23:15:21Z</time>
      </trkpt>
      <trkpt lat="48.69351" lon="2.52599">
        <ele>45</ele>
        <time>2016-08-09T23:17:21Z</time>
      </trkpt>
      <trkpt lat="48.69349" lon="2.5258">
        <ele>45</ele>
        <time>2016-08-09T23:19:21Z</time>
      </trkpt>
      <trkpt lat="48.69348" lon="2.52543">
        <ele>45</ele>
        <time>2016-08-09T23:21:21Z</time>
      </trkpt>
      <trkpt lat="48.69344" lon="2.52527">
        <ele>45</ele>
        <time>2016-08-09T23:23:21Z</time>
      </trkpt>
      <trkpt lat="48.69337" lon="2.52503">
        <ele>44</ele>
        <time>2016-08-09T23:25:21Z</time>
      </trkpt>
      <trkpt lat="48.69328" lon="2.52486">
        <ele>44</ele>
        <time>2016-08-09T23:27:21Z</time>
      </trkpt>
      <trkpt lat="48.6931" lon="2.52466">
        <ele>45</ele>
        <time>2016-08-09T23:29:21Z</time>
      </trkpt>
      <trkpt lat="48.693" lon="2.5246">
        <ele>44</ele>
        <time>2016-08-09T23:31:21Z</time>
      </trkpt>
      <trkpt lat="48.69287" lon="2.52443">
        <ele>45</ele>
        <time>2016-08-09T23:33:21Z</time>
      </trkpt>
      <trkpt lat="48.6927" lon="2.52424">
        <ele>45</ele>
        <time>2016-08-09T23:35:21Z</time>
      </trkpt>
      <trkpt lat="48.69252" lon="2.52411">
        <ele>44</ele>
        <time>2016-08-09T23:37:21Z</time>
      </trkpt>
      <trkpt lat="48.69234" lon="2.52403">
        <ele>45</ele>
        <time>2016-08-09T23:39:21Z</time>
      </trkpt>
      <trkpt lat="48.69219" lon="2.52393">
        <ele>46</ele>
        <time>2016-08-09T23:41:21Z</time>
      </trkpt>
      <trkpt lat="48.69202" lon="2.52379">
        <ele>47</ele>
        <time>2016-08-09T23:43:21Z</time>
      </trkpt>
      <trkpt lat="48.69193" lon="2.52375">
        <ele>47</ele>
        <time>2016-08-09T23:45:21Z</time>
      </trkpt>
      <trkpt lat="48.69182" lon="2.52354">
        <ele>48</ele>
        <time>2016-08-09T23:47:21Z</time>
      </trkpt>
      <trkpt lat="48.69171" lon="2.52336">
        <ele>49</ele>
        <time>2016-08-09T23:49:21Z</time>
      </trkpt>
      <trkpt lat="48.69163" lon="2.52303">
        <ele>49</ele>
        <time>2016-08-09T23:51:21Z</time>
      </trkpt>
      <trkpt lat="48.69152" lon="2.5226">
        <ele>49</ele>
        <time>2016-08-09T23:53:21Z</time>
      </trkpt>
      <trkpt lat="48.69144" lon="2.52225">
        <ele>49</ele>
        <time>2016-08-09T23:55:21Z</time>
      </trkpt>
      <trkpt lat="48.6914" lon="2.52204">
        <ele>48</ele>
        <time>2016-08-09T23:57:21Z</time>
      </trkpt>
      <trkpt lat="48.69141" lon="2.52179">
        <ele>48</ele>
        <time>2016-08-09T23:59:21Z</time>
      </trkpt>
      <trkpt lat="48.69136" lon="2.52155">
        <ele>47</ele>
        <time>2016-08-10T00:01:21Z</time>
      </trkpt>
      <trkpt lat="48.69125" lon="2.52133">
        <ele>47</ele>
        <time>2016-08-10T00:03:21Z</time>
      </trkpt>
      <trkpt lat="48.69118" lon="2.52139">
        <ele>47</ele>
        <time>2016-08-10T00:05:21Z</time>
      </trkpt>
      <trkpt lat="48.69105" lon="2.52131">
        <ele>47</ele>
        <time>2016-08-10T00:07:21Z</time>
      </trkpt>
      <trkpt lat="48.69074" lon="2.52111">
        <ele>46</ele>
        <time>2016-08-10T00:09:21Z</time>
      </trkpt>
      <trkpt lat="48.69054" lon="2.52098">
        <ele>45</ele>
        <time>2016-08-10T00:11:21Z</time>
      </trkpt>
      <trkpt lat="48.69038" lon="2.52086">
        <ele>45</ele>
        <time>2016-08-10T00:13:21Z</time>
      </trkpt>
      <trkpt lat="48.69025" lon="2.52076">
        <ele>44</ele>
        <time>2016-08-10T00:15:21Z</time>
      </trkpt>
      <trkpt lat="48.69014" lon="2.5207">
        <ele>44</ele>
        <time>2016-08-10T00:17:21Z</time>
      </trkpt>
      <trkpt lat="48.68997" lon="2.52067">
        <ele>44</ele>
        <time>2016-08-10T00:19:21Z</time>
      </trkpt>
      <trkpt lat="48.68984" lon="2.52068">
        <ele>44</ele>
        <time>2016-08-10T00:21:21Z</time>
      </trkpt>
      <trkpt lat="48.68973" lon="2.52065">
        <ele>44</ele>
        <time>2016-08-10T00:23:21Z</time>
      </trkpt>
      <trkpt lat="48.68961" lon="2.52073">
        <ele>44</ele>
        <time>2016-08-10T00:25:21Z</time>
      </trkpt>
      <trkpt lat="48.68943" lon="2.52081">
        <ele>43</ele>
        <time>2016-08-10T00:27:21Z</time>
      </trkpt>
      <trkpt lat="48.68934" lon="2.5209">
        <ele>43</ele>
        <time>2016-08-10T00:29:21Z</time>
      </trkpt>
      <trkpt lat="48.68916" lon="2.52111">
        <ele>44</ele>
        <time>2016-08-10T00:31:21Z</time>
      </trkpt>
      <trkpt lat="48.689" lon="2.52139">
        <ele>44</ele>
        <time>2016-08-10T00:33:21Z</time>
      </trkpt>
      <trkpt lat="48.68884" lon="2.52166">
        <ele>43</ele>
        <time>2016-08-10T00:35:21Z</time>
      </trkpt>
      <trkpt lat="48.68866" lon="2.52195">
        <ele>43</ele>
        <time>2016-08-10T00:37:21Z</time>
      </trkpt>
      <trkpt lat="48.68851" lon="2.52221">
        <ele>44</ele>
        <time>2016-08-10T00:39:21Z</time>
      </trkpt>
      <trkpt lat="48.68841" lon="2.52238">
        <ele>45</ele>
        <time>2016-08-10T00:41:21Z</time>
      </trkpt>
      <trkpt lat="48.68833" lon="2.52254">
        <ele>45</ele>
        <time>2016-08-10T00:43:21Z</time>
      </trkpt>
      <trkpt lat="48.68828" lon="2.5227">
        <ele>46</ele>
        <time>2016-08-10T00:45:21Z</time>
      </trkpt>
      <trkpt lat="48.68821" lon="2.52289">
        <ele>46</ele>
        <time>2016-08-10T00:47:21Z</time>
      </trkpt>
      <trkpt lat="48.68815" lon="2.52299">
        <ele>47</ele>
        <time>2016-08-10T00:49:21Z</time>
      </trkpt>
      <trkpt lat="48.68807" lon="2.52308">
        <ele>47</ele>
        <time>2016-08-10T00:51:21Z</time>
      </trkpt>
      <trkpt lat="48.68796" lon="2.52308">
        <ele>46</ele>
        <time>2016-08-10T00:53:21Z</time>
      </trkpt>
      <trkpt lat="48.68783" lon="2.52303">
        <ele>45</ele>
        <time>2016-08-10T00:55:21Z</time>
      </trkpt>
      <trkpt lat="48.68744" lon="2.52276">
        <ele>43</ele>
        <time>2016-08-10T00:57:21Z</time>
      </trkpt>
      <trkpt lat="48.68714" lon="2.52258">
        <ele>46</ele>
        <time>2016-08-10T00:59:21Z</time>
      </trkpt>
      <trkpt lat="48.68625" lon="2.52203">
        <ele>61</ele>
        <time>2016-08-10T01:01:21Z</time>
      </trkpt>
      <trkpt lat="48.6855" lon="2.52162">
        <ele>71</ele>
        <time>2016-08-10T01:03:21Z</time>
      </trkpt>
      <trkpt lat="48.68421" lon="2.52084">
        <ele>87</ele>
        <time>2016-08-10T01:05:21Z</time>
      </trkpt>
      <trkpt lat="48.68206" lon="2.51959">
        <ele>88</ele>
        <time>2016-08-10T01:07:21Z</time>
      </trkpt>
      <trkpt lat="48.68162" lon="2.51933">
        <ele>87</ele>
        <time>2016-08-10T01:09:21Z</time>
      </trkpt>
      <trkpt lat="48.68105" lon="2.51901">
        <ele>88</ele>
        <time>2016-08-10T01:11:21Z</time>
      </trkpt>
      <trkpt lat="48.68091" lon="2.51892">
        <ele>88</ele>
        <time>2016-08-10T01:13:21Z</time>
      </trkpt>
      <trkpt lat="48.68081" lon="2.51882">
        <ele>89</ele>
        <time>2016-08-10T01:15:21Z</time>
      </trkpt>
      <trkpt lat="48.68075" lon="2.51873">
        <ele>89</ele>
        <time>2016-08-10T01:17:21Z</time>
      </trkpt>
      <trkpt lat="48.67955" lon="2.51511">
        <ele>91</ele>
        <time>2016-08-10T01:19:21Z</time>
      </trkpt>
      <trkpt lat="48.67866" lon="2.51242">
        <ele>94</ele>
        <time>2016-08-10T01:21:21Z</time>
      </trkpt>
      <trkpt lat="48.67869" lon="2.51228">
        <ele>94</ele>
        <time>2016-08-10T01:23:21Z</time>
      </trkpt>
      <trkpt lat="48.67884" lon="2.51212">
        <ele>94</ele>
        <time>2016-08-10T01:25:21Z</time>
      </trkpt>
      <trkpt lat="48.67903" lon="2.51184">
        <ele>93</ele>
        <time>2016-08-10T01:27:21Z</time>
      </trkpt>
      <trkpt lat="48.67908" lon="2.51166">
        <ele>93</ele>
        <time>2016-08-10T01:29:21Z</time>
      </trkpt>
      <trkpt lat="48.67909" lon="2.51147">
        <ele>92</ele>
        <time>2016-08-10T01:31:21Z</time>
      </trkpt>
      <trkpt lat="48.67912" lon="2.51139">
        <ele>92</ele>
        <time>2016-08-10T01:33:21Z</time>
      </trkpt>
      <trkpt lat="48.67923" lon="2.51132">
        <ele>92</ele>
        <time>2016-08-10T01:35:21Z</time>
      </trkpt>
      <trkpt lat="48.67933" lon="2.51129">
        <ele>93</ele>
        <time>2016-08-10T01:37:21Z</time>
      </trkpt>
      <trkpt lat="48.67939" lon="2.51128">
        <ele>93</ele>
        <time>2016-08-10T01:39:21Z</time>
      </trkpt>
      <trkpt lat="48.67948" lon="2.51121">
        <ele>93</ele>
        <time>2016-08-10T01:41:21Z</time>
      </trkpt>
      <trkpt lat="48.68009" lon="2.51036">
        <ele>94</ele>
        <time>2016-08-10T01:43:21Z</time>
      </trkpt>
      <trkpt lat="48.68197" lon="2.50778">
        <ele>90</ele>
        <time>2016-08-10T01:45:21Z</time>
      </trkpt>
      <trkpt lat="48.68283" lon="2.50665">
        <ele>89</ele>
        <time>2016-08-10T01:47:21Z</time>
      </trkpt>
      <trkpt lat="48.68352" lon="2.50575">
        <ele>94</ele>
        <time>2016-08-10T01:49:21Z</time>
      </trkpt>
      <trkpt lat="48.6837" lon="2.50549">
        <ele>94</ele>
        <time>2016-08-10T01:51:21Z</time>
      </trkpt>
      <trkpt lat="48.6841" lon="2.50486">
        <ele>94</ele>
        <time>2016-08-10T01:53:21Z</time>
      </trkpt>
      <trkpt lat="48.68505" lon="2.50342">
        <ele>89</ele>
        <time>2016-08-10T01:55:21Z</time>
      </trkpt>
      <trkpt lat="48.68508" lon="2.50335">
        <ele>89</ele>
        <time>2016-08-10T01:57:21Z</time>
      </trkpt>
      <trkpt lat="48.68501" lon="2.50329">
        <ele>89</ele>
        <time>2016-08-10T01:59:21Z</time>
      </trkpt>
      <trkpt lat="48.68499" lon="2.5032">
        <ele>89</ele>
        <time>2016-08-10T02:01:21Z</time>
      </trkpt>
      <trkpt lat="48.68572" lon="2.50227">
        <ele>85</ele>
        <time>2016-08-10T02:03:21Z</time>
      </trkpt>
      <trkpt lat="48.68644" lon="2.50137">
        <ele>83</ele>
        <time>2016-08-10T02:05:21Z</time>
      </trkpt>
      <trkpt lat="48.68539" lon="2.49947">
        <ele>85</ele>
        <time>2016-08-10T02:07:21Z</time>
      </trkpt>
      <trkpt lat="48.68432" lon="2.49747">
        <ele>87</ele>
        <time>2016-08-10T02:09:21Z</time>
      </trkpt>
      <trkpt lat="48.68436" lon="2.4974">
        <ele>87</ele>
        <time>2016-08-10T02:11:21Z</time>
      </trkpt>
      <trkpt lat="48.68437" lon="2.49732">
        <ele>87</ele>
        <time>2016-08-10T02:13:21Z</time>
      </trkpt>
      <trkpt lat="48.68437" lon="2.49721">
        <ele>87</ele>
        <time>2016-08-10T02:15:21Z</time>
      </trkpt>
      <trkpt lat="48.68435" lon="2.49709">
        <ele>87</ele>
        <time>2016-08-10T02:17:21Z</time>
      </trkpt>
      <trkpt lat="48.68548" lon="2.4956">
        <ele>88</ele>
        <time>2016-08-10T02:19:21Z</time>
      </trkpt>
      <trkpt lat="48.68553" lon="2.49568">
        <ele>88</ele>
        <time>2016-08-10T02:21:21Z</time>
      </trkpt>
      <trkpt lat="48.68559" lon="2.49568">
        <ele>88</ele>
        <time>2016-08-10T02:23:21Z</time>
      </trkpt>
      <trkpt lat="48.68568" lon="2.49569">
        <ele>89</ele>
        <time>2016-08-10T02:25:21Z</time>
      </trkpt>
      <trkpt lat="48.68679" lon="2.49867">
        <ele>86</ele>
        <time>2016-08-10T02:27:21Z</time>
      </trkpt>
      <trkpt lat="48.68776" lon="2.50128">
        <ele>83</ele>
        <time>2016-08-10T02:29:21Z</time>
      </trkpt>
      <trkpt lat="48.68942" lon="2.50113">
        <ele>82</ele>
        <time>2016-08-10T02:31:21Z</time>
      </trkpt>
      <trkpt lat="48.6895" lon="2.50117">
        <ele>82</ele>
        <time>2016-08-10T02:33:21Z</time>
      </trkpt>
      <trkpt lat="48.68958" lon="2.50114">
        <ele>82</ele>
        <time>2016-08-10T02:35:21Z</time>
      </trkpt>
      <trkpt lat="48.68972" lon="2.50107">
        <ele>82</ele>
        <time>2016-08-10T02:37:21Z</time>
      </trkpt>
      <trkpt lat="48.68981" lon="2.50108">
        <ele>82</ele>
        <time>2016-08-10T02:39:21Z</time>
      </trkpt>
      <trkpt lat="48.68991" lon="2.50114">
        <ele>82</ele>
        <time>2016-08-10T02:41:21Z</time>
      </trkpt>
      <trkpt lat="48.69008" lon="2.50124">
        <ele>82</ele>
        <time>2016-08-10T02:43:21Z</time>
      </trkpt>
      <trkpt lat="48.69025" lon="2.50135">
        <ele>82</ele>
        <time>2016-08-10T02:45:21Z</time>
      </trkpt>
      <trkpt lat="48.69043" lon="2.5014">
        <ele>81</ele>
        <time>2016-08-10T02:47:21Z</time>
      </trkpt>
      <trkpt lat="48.69055" lon="2.50137">
        <ele>81</ele>
        <time>2016-08-10T02:49:21Z</time>
      </trkpt>
      <trkpt lat="48.69073" lon="2.50131">
        <ele>81</ele>
        <time>2016-08-10T02:51:21Z</time>
      </trkpt>
      <trkpt lat="48.69086" lon="2.50128">
        <ele>80</ele>
        <time>2016-08-10T02:53:21Z</time>
      </trkpt>
      <trkpt lat="48.69095" lon="2.50126">
        <ele>80</ele>
        <time>2016-08-10T02:55:21Z</time>
      </trkpt>
      <trkpt lat="48.69104" lon="2.50129">
        <ele>79</ele>
        <time>2016-08-10T02:57:21Z</time>
      </trkpt>
      <trkpt lat="48.69118" lon="2.50135">
        <ele>78</ele>
        <time>2016-08-10T02:59:21Z</time>
      </trkpt>
      <trkpt lat="48.69129" lon="2.50142">
        <ele>77</ele>
        <time>2016-08-10T03:01:21Z</time>
      </trkpt>
      <trkpt lat="48.69144" lon="2.50157">
        <ele>76</ele>
        <time>2016-08-10T03:03:21Z</time>
      </trkpt>
      <trkpt lat="48.69154" lon="2.50121">
        <ele>75</ele>
        <time>2016-08-10T03:05:21Z</time>
      </trkpt>
      <trkpt lat="48.69162" lon="2.50099">
        <ele>75</ele>
        <time>2016-08-10T03:07:21Z</time>
      </trkpt>
      <trkpt lat="48.69171" lon="2.50078">
        <ele>75</ele>
        <time>2016-08-10T03:09:21Z</time>
      </trkpt>
      <trkpt lat="48.69186" lon="2.50049">
        <ele>74</ele>
        <time>2016-08-10T03:11:21Z</time>
      </trkpt>
      <trkpt lat="48.692" lon="2.50028">
        <ele>73</ele>
        <time>2016-08-10T03:13:21Z</time>
      </trkpt>
      <trkpt lat="48.69238" lon="2.50084">
        <ele>69</ele>
        <time>2016-08-10T03:15:21Z</time>
      </trkpt>
      <trkpt lat="48.69277" lon="2.50131">
        <ele>64</ele>
        <time>2016-08-10T03:17:21Z</time>
      </trkpt>
      <trkpt lat="48.69312" lon="2.50167">
        <ele>60</ele>
        <time>2016-08-10T03:19:21Z</time>
      </trkpt>
      <trkpt lat="48.69328" lon="2.50181">
        <ele>58</ele>
        <time>2016-08-10T03:21:21Z</time>
      </trkpt>
      <trkpt lat="48.69354" lon="2.502">
        <ele>54</ele>
        <time>2016-08-10T03:23:21Z</time>
      </trkpt>
      <trkpt lat="48.69389" lon="2.50219">
        <ele>50</ele>
        <time>2016-08-10T03:25:21Z</time>
      </trkpt>
      <trkpt lat="48.69407" lon="2.50226">
        <ele>48</ele>
        <time>2016-08-10T03:27:21Z</time>
      </trkpt>
      <trkpt lat="48.69446" lon="2.50228">
        <ele>46</ele>
        <time>2016-08-10T03:29:21Z</time>
      </trkpt>
      <trkpt lat="48.69466" lon="2.50228">
        <ele>45</ele>
        <time>2016-08-10T03:31:21Z</time>
      </trkpt>
      <trkpt lat="48.69473" lon="2.50223">
        <ele>45</ele>
        <time>2016-08-10T03:33:21Z</time>
      </trkpt>
      <trkpt lat="48.69479" lon="2.50217">
        <ele>45</ele>
        <time>2016-08-10T03:35:21Z</time>
      </trkpt>
      <trkpt lat="48.69488" lon="2.50221">
        <ele>44</ele>
        <time>2016-08-10T03:37:21Z</time>
      </trkpt>
      <trkpt lat="48.69493" lon="2.50213">
        <ele>44</ele>
        <time>2016-08-10T03:39:21Z</time>
      </trkpt>
      <trkpt lat="48.695" lon="2.50209">
        <ele>44</ele>
        <time>2016-08-10T03:41:21Z</time>
      </trkpt>
      <trkpt lat="48.6952" lon="2.50198">
        <ele>44</ele>
        <time>2016-08-10T03:43:21Z</time>
      </trkpt>
      <trkpt lat="48.69538" lon="2.5019">
        <ele>44</ele>
        <time>2016-08-10T03:45:21Z</time>
      </trkpt>
      <trkpt lat="48.6955" lon="2.50182">
        <ele>44</ele>
        <time>2016-08-10T03:47:21Z</time>
      </trkpt>
      <trkpt lat="48.69559" lon="2.5018">
        <ele>44</ele>
        <time>2016-08-10T03:49:21Z</time>
      </trkpt>
      <trkpt lat="48.69565" lon="2.50189">
        <ele>44</ele>
        <time>2016-08-10T03:51:21Z</time>
      </trkpt>
      <trkpt lat="48.69572" lon="2.50192">
        <ele>43</ele>
        <time>2016-08-10T03:53:21Z</time>
      </trkpt>
      <trkpt lat="48.69577" lon="2.50192">
        <ele>43</ele>
        <time>2016-08-10T03:55:21Z</time>
      </trkpt>
      <trkpt lat="48.69583" lon="2.50185">
        <ele>44</ele>
        <time>2016-08-10T03:57:21Z</time>
      </trkpt>
      <trkpt lat="48.69586" lon="2.50175">
        <ele>44</ele>
        <time>2016-08-10T03:59:21Z</time>
      </trkpt>
      <trkpt lat="48.69588" lon="2.50167">
        <ele>44</ele>
        <time>2016-08-10T04:01:21Z</time>
      </trkpt>
      <trkpt lat="48.69601" lon="2.50159">
        <ele>44</ele>
        <time>2016-08-10T04:03:21Z</time>
      </trkpt>
      <trkpt lat="48.69613" lon="2.50154">
        <ele>44</ele>
        <time>2016-08-10T04:05:21Z</time>
      </trkpt>
      <trkpt lat="48.69625" lon="2.5015">
        <ele>44</ele>
        <time>2016-08-10T04:07:21Z</time>
      </trkpt>
      <trkpt lat="48.69631" lon="2.5013">
        <ele>44</ele>
        <time>2016-08-10T04:09:21Z</time>
      </trkpt>
      <trkpt lat="48.69636" lon="2.50111">
        <ele>44</ele>
        <time>2016-08-10T04:11:21Z</time>
      </trkpt>
      <trkpt lat="48.6964" lon="2.50095">
        <ele>45</ele>
        <time>2016-08-10T04:13:21Z</time>
      </trkpt>
      <trkpt lat="48.69645" lon="2.5008">
        <ele>45</ele>
        <time>2016-08-10T04:15:21Z</time>
      </trkpt>
      <trkpt lat="48.69654" lon="2.50058">
        <ele>45</ele>
        <time>2016-08-10T04:17:21Z</time>
      </trkpt>
      <trkpt lat="48.69673" lon="2.50037">
        <ele>45</ele>
        <time>2016-08-10T04:19:21Z</time>
      </trkpt>
      <trkpt lat="48.69688" lon="2.50022">
        <ele>45</ele>
        <time>2016-08-10T04:21:21Z</time>
      </trkpt>
      <trkpt lat="48.69701" lon="2.50008">
        <ele>45</ele>
        <time>2016-08-10T04:23:21Z</time>
      </trkpt>
      <trkpt lat="48.69708" lon="2.49996">
        <ele>44</ele>
        <time>2016-08-10T04:25:21Z</time>
      </trkpt>
      <trkpt lat="48.69718" lon="2.49977">
        <ele>44</ele>
        <time>2016-08-10T04:27:21Z</time>
      </trkpt>
      <trkpt lat="48.69728" lon="2.49961">
        <ele>43</ele>
        <time>2016-08-10T04:29:21Z</time>
      </trkpt>
      <trkpt lat="48.69733" lon="2.4995">
        <ele>43</ele>
        <time>2016-08-10T04:31:21Z</time>
      </trkpt>
      <trkpt lat="48.69686" lon="2.49902">
        <ele>42</ele>
        <time>2016-08-10T04:33:21Z</time>
      </trkpt>
    </trkseg>
  </trk>
</gpx>